sensor_id;sensor_type;location;lat;lon;timestamp;pressure;altitude;pressure_sealevel;temperature;humidity
12785;BME280;6456;42.680;23.260;2023-02-10T00:01:08;96444.81;;;-3.62;87.38
12785;BME280;6456;42.680;23.260;2023-02-10T00:03:36;96376.59;;;-4.01;87.28
12785;BME280;6456;42.680;23.260;2023-02-10T00:06:04;96391.03;;;-3.98;86.57
12785;BME280;6456;42.680;23.260;2023-02-10T00:08:31;96412.34;;;-3.80;86.26
12785;BME280;6456;42.680;23.260;2023-02-10T00:11:01;96376.44;;;-3.98;86.07
12785;BME280;6456;42.680;23.260;2023-02-10T00:13:30;96426.56;;;-3.73;86.03
12785;BME280;6456;42.680;23.260;2023-02-10T00:15:57;96371.94;;;-4.10;85.78
12785;BME280;6456;42.680;23.260;2023-02-10T00:18:26;96272.41;;;-4.70;85.63
12785;BME280;6456;42.680;23.260;2023-02-10T00:20:54;96334.94;;;-4.38;85.79
12785;BME280;6456;42.680;23.260;2023-02-10T00:23:21;96386.28;;;-4.21;85.67
12785;BME280;6456;42.680;23.260;2023-02-10T00:25:48;96430.00;;;-4.06;86.06
12785;BME280;6456;42.680;23.260;2023-02-10T00:28:15;96393.91;;;-4.20;85.84
12785;BME280;6456;42.680;23.260;2023-02-10T00:30:43;96345.09;;;-4.53;85.93
12785;BME280;6456;42.680;23.260;2023-02-10T00:33:10;96357.41;;;-4.42;85.40
12785;BME280;6456;42.680;23.260;2023-02-10T00:35:37;96397.97;;;-4.31;85.88
12785;BME280;6456;42.680;23.260;2023-02-10T00:38:04;96421.53;;;-4.08;85.55
12785;BME280;6456;42.680;23.260;2023-02-10T00:40:30;96418.31;;;-4.11;85.67
12785;BME280;6456;42.680;23.260;2023-02-10T00:42:57;96408.59;;;-4.22;85.89
12785;BME280;6456;42.680;23.260;2023-02-10T00:45:24;96404.84;;;-4.32;86.74
12785;BME280;6456;42.680;23.260;2023-02-10T00:47:52;96400.59;;;-4.33;86.42
12785;BME280;6456;42.680;23.260;2023-02-10T00:50:20;96384.91;;;-4.44;86.40
12785;BME280;6456;42.680;23.260;2023-02-10T00:52:47;96411.34;;;-4.42;86.73
12785;BME280;6456;42.680;23.260;2023-02-10T00:55:14;96396.38;;;-4.34;86.32
12785;BME280;6456;42.680;23.260;2023-02-10T00:57:40;96365.16;;;-4.59;86.24
12785;BME280;6456;42.680;23.260;2023-02-10T01:00:08;96333.19;;;-4.86;86.18
12785;BME280;6456;42.680;23.260;2023-02-10T01:02:35;96397.63;;;-4.41;86.29
12785;BME280;6456;42.680;23.260;2023-02-10T01:05:07;96312.09;;;-4.93;86.34
12785;BME280;6456;42.680;23.260;2023-02-10T01:07:33;96387.34;;;-4.58;86.56
12785;BME280;6456;42.680;23.260;2023-02-10T01:10:00;96332.28;;;-5.02;86.96
12785;BME280;6456;42.680;23.260;2023-02-10T01:12:28;96341.19;;;-4.92;86.85
12785;BME280;6456;42.680;23.260;2023-02-10T01:14:55;96340.28;;;-4.91;86.79
12785;BME280;6456;42.680;23.260;2023-02-10T01:17:21;96393.06;;;-4.53;86.88
12785;BME280;6456;42.680;23.260;2023-02-10T01:19:48;96340.44;;;-4.94;87.24
12785;BME280;6456;42.680;23.260;2023-02-10T01:22:18;96383.19;;;-4.61;87.57
12785;BME280;6456;42.680;23.260;2023-02-10T01:24:44;96384.78;;;-4.58;87.51
12785;BME280;6456;42.680;23.260;2023-02-10T01:27:11;96304.34;;;-5.08;87.43
12785;BME280;6456;42.680;23.260;2023-02-10T01:29:38;96374.34;;;-4.55;87.57
12785;BME280;6456;42.680;23.260;2023-02-10T01:32:05;96348.84;;;-4.75;87.54
12785;BME280;6456;42.680;23.260;2023-02-10T01:34:32;96311.44;;;-4.96;87.55
12785;BME280;6456;42.680;23.260;2023-02-10T01:36:58;96376.31;;;-4.60;87.87
12785;BME280;6456;42.680;23.260;2023-02-10T01:39:27;96325.53;;;-4.88;87.59
12785;BME280;6456;42.680;23.260;2023-02-10T01:41:54;96376.03;;;-4.54;87.33
12785;BME280;6456;42.680;23.260;2023-02-10T01:47:45;96297.25;;;-5.03;87.63
12785;BME280;6456;42.680;23.260;2023-02-10T01:50:13;96363.84;;;-4.50;87.62
12785;BME280;6456;42.680;23.260;2023-02-10T01:52:42;96300.09;;;-4.92;87.82
12785;BME280;6456;42.680;23.260;2023-02-10T01:55:14;96317.00;;;-4.88;87.47
12785;BME280;6456;42.680;23.260;2023-02-10T01:57:43;96291.41;;;-4.90;87.39
12785;BME280;6456;42.680;23.260;2023-02-10T02:00:12;96334.03;;;-4.70;87.61
12785;BME280;6456;42.680;23.260;2023-02-10T02:02:39;96351.66;;;-4.47;87.45
12785;BME280;6456;42.680;23.260;2023-02-10T02:05:19;96283.22;;;-4.81;87.70
12785;BME280;6456;42.680;23.260;2023-02-10T02:07:46;96290.28;;;-4.84;87.69
12785;BME280;6456;42.680;23.260;2023-02-10T02:10:16;96215.41;;;-5.25;87.49
12785;BME280;6456;42.680;23.260;2023-02-10T02:12:50;96277.50;;;-4.86;87.37
12785;BME280;6456;42.680;23.260;2023-02-10T02:15:25;96317.09;;;-4.57;87.35
12785;BME280;6456;42.680;23.260;2023-02-10T02:17:59;96277.00;;;-4.92;87.31
12785;BME280;6456;42.680;23.260;2023-02-10T02:20:55;96333.16;;;-4.69;87.30
12785;BME280;6456;42.680;23.260;2023-02-10T02:23:50;96273.88;;;-5.14;87.52
12785;BME280;6456;42.680;23.260;2023-02-10T02:26:51;96304.34;;;-4.91;87.15
12785;BME280;6456;42.680;23.260;2023-02-10T02:29:40;96285.00;;;-4.98;86.39
12785;BME280;6456;42.680;23.260;2023-02-10T02:32:14;96318.44;;;-4.83;86.25
12785;BME280;6456;42.680;23.260;2023-02-10T02:34:48;96280.59;;;-5.12;86.50
12785;BME280;6456;42.680;23.260;2023-02-10T02:37:19;96337.69;;;-4.74;86.70
12785;BME280;6456;42.680;23.260;2023-02-10T02:39:48;96329.53;;;-4.82;86.99
12785;BME280;6456;42.680;23.260;2023-02-10T02:42:18;96208.88;;;-5.65;87.54
12785;BME280;6456;42.680;23.260;2023-02-10T02:44:48;96279.59;;;-5.09;87.64
12785;BME280;6456;42.680;23.260;2023-02-10T02:47:44;96333.84;;;-4.83;87.62
12785;BME280;6456;42.680;23.260;2023-02-10T02:50:23;96269.97;;;-5.22;87.42
12785;BME280;6456;42.680;23.260;2023-02-10T02:53:10;96256.00;;;-5.33;87.37
12785;BME280;6456;42.680;23.260;2023-02-10T02:55:48;96342.53;;;-4.85;87.56
12785;BME280;6456;42.680;23.260;2023-02-10T02:58:21;96255.94;;;-5.32;87.15
12785;BME280;6456;42.680;23.260;2023-02-10T03:00:54;96241.78;;;-5.39;87.24
12785;BME280;6456;42.680;23.260;2023-02-10T03:03:27;96279.41;;;-5.22;87.32
12785;BME280;6456;42.680;23.260;2023-02-10T03:05:57;96265.47;;;-5.34;87.33
12785;BME280;6456;42.680;23.260;2023-02-10T03:08:24;96257.31;;;-5.42;87.33
12785;BME280;6456;42.680;23.260;2023-02-10T03:10:51;96254.81;;;-5.43;87.32
12785;BME280;6456;42.680;23.260;2023-02-10T03:13:18;96235.88;;;-5.58;86.93
12785;BME280;6456;42.680;23.260;2023-02-10T03:15:45;96275.41;;;-5.45;87.25
12785;BME280;6456;42.680;23.260;2023-02-10T03:18:12;96228.34;;;-5.78;88.15
12785;BME280;6456;42.680;23.260;2023-02-10T03:20:40;96341.34;;;-5.12;87.96
12785;BME280;6456;42.680;23.260;2023-02-10T03:23:07;96327.84;;;-5.16;87.83
12785;BME280;6456;42.680;23.260;2023-02-10T03:25:34;96264.03;;;-5.56;87.99
12785;BME280;6456;42.680;23.260;2023-02-10T03:28:01;96327.78;;;-5.14;88.05
12785;BME280;6456;42.680;23.260;2023-02-10T03:30:28;96261.38;;;-5.55;88.09
12785;BME280;6456;42.680;23.260;2023-02-10T03:32:55;96336.53;;;-5.18;88.09
12785;BME280;6456;42.680;23.260;2023-02-10T03:35:22;96253.53;;;-5.69;88.29
12785;BME280;6456;42.680;23.260;2023-02-10T03:37:50;96264.09;;;-5.58;87.87
12785;BME280;6456;42.680;23.260;2023-02-10T03:40:17;96265.16;;;-5.62;87.80
12785;BME280;6456;42.680;23.260;2023-02-10T03:42:44;96322.88;;;-5.19;87.62
12785;BME280;6456;42.680;23.260;2023-02-10T03:45:11;96275.09;;;-5.56;87.61
12785;BME280;6456;42.680;23.260;2023-02-10T03:47:38;96260.78;;;-5.60;87.88
12785;BME280;6456;42.680;23.260;2023-02-10T03:50:05;96219.63;;;-5.91;87.95
12785;BME280;6456;42.680;23.260;2023-02-10T03:52:32;96288.00;;;-5.40;88.34
12785;BME280;6456;42.680;23.260;2023-02-10T03:55:00;96234.06;;;-5.73;88.58
12785;BME280;6456;42.680;23.260;2023-02-10T03:57:28;96281.44;;;-5.46;88.41
12785;BME280;6456;42.680;23.260;2023-02-10T03:59:55;96256.13;;;-5.69;88.41
12785;BME280;6456;42.680;23.260;2023-02-10T04:02:21;96177.03;;;-6.11;88.33
12785;BME280;6456;42.680;23.260;2023-02-10T04:04:49;96221.38;;;-5.92;88.49
12785;BME280;6456;42.680;23.260;2023-02-10T04:07:15;96160.66;;;-6.25;87.92
12785;BME280;6456;42.680;23.260;2023-02-10T04:09:42;96307.69;;;-5.41;87.97
12785;BME280;6456;42.680;23.260;2023-02-10T04:12:11;96245.53;;;-5.80;87.85
12785;BME280;6456;42.680;23.260;2023-02-10T04:14:38;96319.91;;;-5.46;88.38
12785;BME280;6456;42.680;23.260;2023-02-10T04:17:05;96259.25;;;-5.81;87.86
12785;BME280;6456;42.680;23.260;2023-02-10T04:19:31;96245.34;;;-5.93;87.89
12785;BME280;6456;42.680;23.260;2023-02-10T04:21:58;96303.00;;;-5.67;88.55
12785;BME280;6456;42.680;23.260;2023-02-10T04:24:25;96304.50;;;-5.63;88.56
12785;BME280;6456;42.680;23.260;2023-02-10T04:26:53;96303.75;;;-5.65;88.93
12785;BME280;6456;42.680;23.260;2023-02-10T04:29:21;96301.19;;;-5.65;88.80
12785;BME280;6456;42.680;23.260;2023-02-10T04:31:48;96281.44;;;-5.80;89.49
12785;BME280;6456;42.680;23.260;2023-02-10T04:34:15;96302.88;;;-5.64;89.97
12785;BME280;6456;42.680;23.260;2023-02-10T04:36:43;96223.50;;;-6.18;89.36
12785;BME280;6456;42.680;23.260;2023-02-10T04:39:10;96237.41;;;-6.05;89.23
12785;BME280;6456;42.680;23.260;2023-02-10T04:41:37;96243.72;;;-6.12;89.14
12785;BME280;6456;42.680;23.260;2023-02-10T04:44:04;96268.31;;;-5.91;89.13
12785;BME280;6456;42.680;23.260;2023-02-10T04:46:33;96225.72;;;-6.11;89.54
12785;BME280;6456;42.680;23.260;2023-02-10T04:49:00;96307.81;;;-5.61;89.68
12785;BME280;6456;42.680;23.260;2023-02-10T04:51:27;96316.31;;;-5.59;90.35
12785;BME280;6456;42.680;23.260;2023-02-10T04:53:54;96296.22;;;-5.68;90.50
12785;BME280;6456;42.680;23.260;2023-02-10T04:56:21;96242.53;;;-6.05;90.71
12785;BME280;6456;42.680;23.260;2023-02-10T04:58:48;96296.06;;;-5.65;90.42
12785;BME280;6456;42.680;23.260;2023-02-10T05:01:15;96255.72;;;-5.96;90.70
12785;BME280;6456;42.680;23.260;2023-02-10T05:03:43;96250.53;;;-5.94;90.64
12785;BME280;6456;42.680;23.260;2023-02-10T05:06:12;96240.50;;;-5.99;90.13
12785;BME280;6456;42.680;23.260;2023-02-10T05:08:39;96300.13;;;-5.61;89.75
12785;BME280;6456;42.680;23.260;2023-02-10T05:11:07;96326.09;;;-5.50;88.83
12785;BME280;6456;42.680;23.260;2023-02-10T05:13:34;96284.75;;;-5.78;88.11
12785;BME280;6456;42.680;23.260;2023-02-10T05:16:01;96261.69;;;-5.95;88.07
12785;BME280;6456;42.680;23.260;2023-02-10T05:18:29;96305.03;;;-5.73;88.79
12785;BME280;6456;42.680;23.260;2023-02-10T05:20:57;96293.34;;;-5.79;89.29
12785;BME280;6456;42.680;23.260;2023-02-10T05:23:24;96309.78;;;-5.83;89.53
12785;BME280;6456;42.680;23.260;2023-02-10T05:25:51;96327.59;;;-5.63;88.87
12785;BME280;6456;42.680;23.260;2023-02-10T05:28:18;96359.69;;;-5.54;88.17
12785;BME280;6456;42.680;23.260;2023-02-10T05:30:46;96360.03;;;-5.62;88.05
12785;BME280;6456;42.680;23.260;2023-02-10T05:33:13;96364.41;;;-5.64;88.32
12785;BME280;6456;42.680;23.260;2023-02-10T05:35:40;96350.81;;;-5.66;88.50
12785;BME280;6456;42.680;23.260;2023-02-10T05:38:08;96362.84;;;-5.66;88.82
12785;BME280;6456;42.680;23.260;2023-02-10T05:40:35;96364.56;;;-5.67;88.93
12785;BME280;6456;42.680;23.260;2023-02-10T05:43:02;96364.69;;;-5.70;89.17
12785;BME280;6456;42.680;23.260;2023-02-10T05:45:29;96328.94;;;-5.90;88.73
12785;BME280;6456;42.680;23.260;2023-02-10T05:47:56;96347.94;;;-5.77;88.67
12785;BME280;6456;42.680;23.260;2023-02-10T05:50:23;96317.09;;;-5.93;88.58
12785;BME280;6456;42.680;23.260;2023-02-10T05:52:50;96375.47;;;-5.63;88.24
12785;BME280;6456;42.680;23.260;2023-02-10T05:55:18;96375.44;;;-5.62;88.66
12785;BME280;6456;42.680;23.260;2023-02-10T05:57:46;96369.47;;;-5.62;88.55
12785;BME280;6456;42.680;23.260;2023-02-10T06:00:14;96374.09;;;-5.52;88.75
12785;BME280;6456;42.680;23.260;2023-02-10T06:02:41;96328.84;;;-5.89;88.58
12785;BME280;6456;42.680;23.260;2023-02-10T06:05:08;96348.34;;;-5.67;88.59
12785;BME280;6456;42.680;23.260;2023-02-10T06:07:35;96322.31;;;-5.77;88.42
12785;BME280;6456;42.680;23.260;2023-02-10T06:10:01;96340.72;;;-5.69;88.09
12785;BME280;6456;42.680;23.260;2023-02-10T06:12:30;96360.50;;;-5.54;87.92
12785;BME280;6456;42.680;23.260;2023-02-10T06:14:56;96394.53;;;-5.33;88.10
12785;BME280;6456;42.680;23.260;2023-02-10T06:17:23;96400.28;;;-5.28;87.93
12785;BME280;6456;42.680;23.260;2023-02-10T06:19:51;96398.69;;;-5.31;87.91
12785;BME280;6456;42.680;23.260;2023-02-10T06:22:18;96398.50;;;-5.26;88.32
12785;BME280;6456;42.680;23.260;2023-02-10T06:24:45;96405.50;;;-5.30;88.54
12785;BME280;6456;42.680;23.260;2023-02-10T06:27:12;96362.84;;;-5.49;88.51
12785;BME280;6456;42.680;23.260;2023-02-10T06:29:41;96379.31;;;-5.36;88.56
12785;BME280;6456;42.680;23.260;2023-02-10T06:32:07;96410.03;;;-5.18;88.18
12785;BME280;6456;42.680;23.260;2023-02-10T06:34:34;96389.97;;;-5.27;88.35
12785;BME280;6456;42.680;23.260;2023-02-10T06:37:01;96388.66;;;-5.35;88.19
12785;BME280;6456;42.680;23.260;2023-02-10T06:39:28;96404.97;;;-5.36;88.33
12785;BME280;6456;42.680;23.260;2023-02-10T06:41:55;96404.00;;;-5.34;87.88
12785;BME280;6456;42.680;23.260;2023-02-10T06:44:23;96407.78;;;-5.24;87.63
12785;BME280;6456;42.680;23.260;2023-02-10T06:46:51;96408.16;;;-5.14;87.28
12785;BME280;6456;42.680;23.260;2023-02-10T06:49:18;96382.03;;;-5.39;87.13
12785;BME280;6456;42.680;23.260;2023-02-10T06:51:45;96413.19;;;-5.30;87.97
12785;BME280;6456;42.680;23.260;2023-02-10T06:54:11;96325.91;;;-5.81;88.27
12785;BME280;6456;42.680;23.260;2023-02-10T06:56:38;96390.63;;;-5.40;88.01
12785;BME280;6456;42.680;23.260;2023-02-10T06:59:07;96429.22;;;-5.07;88.14
12785;BME280;6456;42.680;23.260;2023-02-10T07:01:33;96390.81;;;-5.26;87.57
12785;BME280;6456;42.680;23.260;2023-02-10T07:04:02;96426.28;;;-5.00;87.53
12785;BME280;6456;42.680;23.260;2023-02-10T07:06:28;96425.91;;;-4.92;86.92
12785;BME280;6456;42.680;23.260;2023-02-10T07:08:55;96428.41;;;-4.74;86.82
12785;BME280;6456;42.680;23.260;2023-02-10T07:11:22;96389.34;;;-4.80;86.31
12785;BME280;6456;42.680;23.260;2023-02-10T07:13:49;96409.72;;;-4.60;86.75
12785;BME280;6456;42.680;23.260;2023-02-10T07:16:16;96419.31;;;-4.46;86.61
12785;BME280;6456;42.680;23.260;2023-02-10T07:18:43;96407.91;;;-4.41;86.51
12785;BME280;6456;42.680;23.260;2023-02-10T07:21:11;96415.84;;;-4.30;85.67
12785;BME280;6456;42.680;23.260;2023-02-10T07:23:38;96416.75;;;-4.46;85.69
12785;BME280;6456;42.680;23.260;2023-02-10T07:26:05;96361.19;;;-4.82;86.26
12785;BME280;6456;42.680;23.260;2023-02-10T07:28:32;96415.59;;;-4.41;85.83
12785;BME280;6456;42.680;23.260;2023-02-10T07:30:59;96390.56;;;-4.37;85.11
12785;BME280;6456;42.680;23.260;2023-02-10T07:33:26;96412.19;;;-4.09;84.42
12785;BME280;6456;42.680;23.260;2023-02-10T07:35:53;96415.94;;;-3.99;84.03
12785;BME280;6456;42.680;23.260;2023-02-10T07:38:22;96415.34;;;-3.88;83.54
12785;BME280;6456;42.680;23.260;2023-02-10T07:40:48;96393.50;;;-4.12;83.60
12785;BME280;6456;42.680;23.260;2023-02-10T07:43:23;96344.47;;;-4.40;83.87
12785;BME280;6456;42.680;23.260;2023-02-10T07:45:49;96392.84;;;-4.00;84.08
12785;BME280;6456;42.680;23.260;2023-02-10T07:48:17;96412.59;;;-3.85;83.97
12785;BME280;6456;42.680;23.260;2023-02-10T07:50:45;96407.88;;;-3.93;84.15
12785;BME280;6456;42.680;23.260;2023-02-10T07:53:13;96412.13;;;-3.92;83.87
12785;BME280;6456;42.680;23.260;2023-02-10T07:55:41;96420.88;;;-3.96;83.16
12785;BME280;6456;42.680;23.260;2023-02-10T07:58:08;96418.75;;;-3.88;83.94
12785;BME280;6456;42.680;23.260;2023-02-10T08:00:35;96416.75;;;-3.82;83.66
12785;BME280;6456;42.680;23.260;2023-02-10T08:03:02;96426.97;;;-3.65;83.63
12785;BME280;6456;42.680;23.260;2023-02-10T08:05:29;96425.41;;;-3.52;82.78
12785;BME280;6456;42.680;23.260;2023-02-10T08:07:56;96432.13;;;-3.50;82.91
12785;BME280;6456;42.680;23.260;2023-02-10T08:10:22;96416.63;;;-3.48;81.38
12785;BME280;6456;42.680;23.260;2023-02-10T08:12:50;96418.09;;;-3.44;81.41
12785;BME280;6456;42.680;23.260;2023-02-10T08:15:17;96422.13;;;-3.25;80.96
12785;BME280;6456;42.680;23.260;2023-02-10T08:17:46;96415.66;;;-3.16;80.67
12785;BME280;6456;42.680;23.260;2023-02-10T08:20:14;96417.69;;;-3.07;79.86
12785;BME280;6456;42.680;23.260;2023-02-10T08:22:40;96422.31;;;-2.98;79.16
12785;BME280;6456;42.680;23.260;2023-02-10T08:25:07;96415.66;;;-3.16;79.13
12785;BME280;6456;42.680;23.260;2023-02-10T08:27:34;96337.78;;;-3.80;79.30
12785;BME280;6456;42.680;23.260;2023-02-10T08:30:03;96349.47;;;-3.75;79.85
12785;BME280;6456;42.680;23.260;2023-02-10T08:32:31;96420.56;;;-3.27;80.29
12785;BME280;6456;42.680;23.260;2023-02-10T08:34:57;96405.44;;;-3.33;79.97
12785;BME280;6456;42.680;23.260;2023-02-10T08:37:25;96377.69;;;-3.28;79.11
12785;BME280;6456;42.680;23.260;2023-02-10T08:39:52;96407.44;;;-2.93;78.79
12785;BME280;6456;42.680;23.260;2023-02-10T08:42:19;96413.47;;;-2.78;78.44
12785;BME280;6456;42.680;23.260;2023-02-10T08:44:45;96408.06;;;-2.74;79.04
12785;BME280;6456;42.680;23.260;2023-02-10T08:47:14;96407.13;;;-2.73;78.64
12785;BME280;6456;42.680;23.260;2023-02-10T08:49:40;96349.41;;;-2.98;78.56
12785;BME280;6456;42.680;23.260;2023-02-10T08:52:08;96348.50;;;-2.83;78.04
12785;BME280;6456;42.680;23.260;2023-02-10T08:54:35;96410.03;;;-2.35;77.12
12785;BME280;6456;42.680;23.260;2023-02-10T08:57:02;96374.97;;;-2.51;76.54
12785;BME280;6456;42.680;23.260;2023-02-10T08:59:29;96408.41;;;-2.36;76.55
12785;BME280;6456;42.680;23.260;2023-02-10T09:01:55;96403.13;;;-2.34;77.17
12785;BME280;6456;42.680;23.260;2023-02-10T09:04:24;96364.25;;;-2.45;76.08
12785;BME280;6456;42.680;23.260;2023-02-10T09:06:50;96397.44;;;-2.11;75.65
12785;BME280;6456;42.680;23.260;2023-02-10T09:09:20;96348.81;;;-2.31;74.93
12785;BME280;6456;42.680;23.260;2023-02-10T09:11:50;96404.06;;;-1.93;74.65
12785;BME280;6456;42.680;23.260;2023-02-10T09:14:18;96381.50;;;-2.04;73.70
12785;BME280;6456;42.680;23.260;2023-02-10T09:16:45;96385.16;;;-1.93;73.61
12785;BME280;6456;42.680;23.260;2023-02-10T09:19:12;96372.91;;;-1.90;73.49
12785;BME280;6456;42.680;23.260;2023-02-10T09:21:40;96374.94;;;-1.81;71.76
12785;BME280;6456;42.680;23.260;2023-02-10T09:24:07;96392.81;;;-1.78;71.87
12785;BME280;6456;42.680;23.260;2023-02-10T09:26:34;96397.38;;;-1.69;72.00
12785;BME280;6456;42.680;23.260;2023-02-10T09:29:01;96392.84;;;-1.65;71.57
12785;BME280;6456;42.680;23.260;2023-02-10T09:31:28;96390.63;;;-1.57;70.62
12785;BME280;6456;42.680;23.260;2023-02-10T09:33:55;96388.50;;;-1.51;70.86
12785;BME280;6456;42.680;23.260;2023-02-10T09:36:22;96385.50;;;-1.45;70.85
12785;BME280;6456;42.680;23.260;2023-02-10T09:38:50;96355.75;;;-1.50;70.60
12785;BME280;6456;42.680;23.260;2023-02-10T09:41:38;96371.22;;;-1.50;69.81
12785;BME280;6456;42.680;23.260;2023-02-10T09:44:11;96363.16;;;-1.58;69.26
12785;BME280;6456;42.680;23.260;2023-02-10T09:46:52;96352.31;;;-1.63;68.63
12785;BME280;6456;42.680;23.260;2023-02-10T09:49:45;96339.16;;;-1.46;67.84
12785;BME280;6456;42.680;23.260;2023-02-10T09:52:20;96371.38;;;-1.12;67.48
12785;BME280;6456;42.680;23.260;2023-02-10T09:54:53;96339.31;;;-1.22;66.85
12785;BME280;6456;42.680;23.260;2023-02-10T09:57:25;96370.16;;;-1.07;67.07
12785;BME280;6456;42.680;23.260;2023-02-10T09:59:54;96367.06;;;-0.99;67.35
12785;BME280;6456;42.680;23.260;2023-02-10T10:02:34;96365.84;;;-0.94;67.15
12785;BME280;6456;42.680;23.260;2023-02-10T10:05:23;96361.31;;;-0.78;66.59
12785;BME280;6456;42.680;23.260;2023-02-10T10:07:57;96344.38;;;-0.69;66.16
12785;BME280;6456;42.680;23.260;2023-02-10T10:10:28;96333.72;;;-0.65;65.85
12785;BME280;6456;42.680;23.260;2023-02-10T10:12:58;96298.56;;;-0.67;65.46
12785;BME280;6456;42.680;23.260;2023-02-10T10:15:30;96336.50;;;-0.30;65.18
12785;BME280;6456;42.680;23.260;2023-02-10T10:18:07;96274.88;;;-0.61;64.85
12785;BME280;6456;42.680;23.260;2023-02-10T10:20:50;96332.16;;;-0.17;64.81
12785;BME280;6456;42.680;23.260;2023-02-10T10:23:33;96271.97;;;-0.56;64.86
12785;BME280;6456;42.680;23.260;2023-02-10T10:26:18;96315.28;;;-0.22;64.43
12785;BME280;6456;42.680;23.260;2023-02-10T10:28:55;96305.69;;;-0.20;63.96
12785;BME280;6456;42.680;23.260;2023-02-10T10:31:30;96324.53;;;0.06;62.55
12785;BME280;6456;42.680;23.260;2023-02-10T10:33:59;96301.97;;;0.08;62.82
12785;BME280;6456;42.680;23.260;2023-02-10T10:36:32;96311.97;;;0.25;62.89
12785;BME280;6456;42.680;23.260;2023-02-10T10:39:01;96314.94;;;0.31;62.86
12785;BME280;6456;42.680;23.260;2023-02-10T10:41:33;96267.69;;;0.17;62.66
12785;BME280;6456;42.680;23.260;2023-02-10T10:44:02;96312.81;;;0.49;61.87
12785;BME280;6456;42.680;23.260;2023-02-10T10:46:34;96248.31;;;0.22;61.53
12785;BME280;6456;42.680;23.260;2023-02-10T10:49:02;96291.69;;;0.66;61.17
12785;BME280;6456;42.680;23.260;2023-02-10T10:51:29;96281.09;;;0.69;61.02
12785;BME280;6456;42.680;23.260;2023-02-10T10:53:58;96255.53;;;0.64;60.66
12785;BME280;6456;42.680;23.260;2023-02-10T10:56:30;96267.16;;;0.83;60.64
12785;BME280;6456;42.680;23.260;2023-02-10T10:59:03;96228.25;;;0.72;60.63
12785;BME280;6456;42.680;23.260;2023-02-10T11:01:34;96247.97;;;0.96;60.85
12785;BME280;6456;42.680;23.260;2023-02-10T11:04:06;96266.38;;;1.04;59.96
12785;BME280;6456;42.680;23.260;2023-02-10T11:06:35;96270.50;;;1.18;59.49
12785;BME280;6456;42.680;23.260;2023-02-10T11:09:06;96216.03;;;0.85;58.64
12785;BME280;6456;42.680;23.260;2023-02-10T11:11:35;96231.50;;;0.97;58.12
12785;BME280;6456;42.680;23.260;2023-02-10T11:14:13;96274.66;;;1.32;58.80
12785;BME280;6456;42.680;23.260;2023-02-10T11:16:43;96214.53;;;1.04;58.70
12785;BME280;6456;42.680;23.260;2023-02-10T11:19:19;96259.59;;;1.48;58.81
12785;BME280;6456;42.680;23.260;2023-02-10T11:21:46;96258.88;;;1.57;59.33
12785;BME280;6456;42.680;23.260;2023-02-10T11:24:18;96210.75;;;1.30;58.65
12785;BME280;6456;42.680;23.260;2023-02-10T11:26:54;96259.81;;;1.67;57.74
12785;BME280;6456;42.680;23.260;2023-02-10T11:29:23;96194.03;;;1.23;57.67
12785;BME280;6456;42.680;23.260;2023-02-10T11:31:51;96250.16;;;1.47;59.76
12785;BME280;6456;42.680;23.260;2023-02-10T11:34:21;96216.31;;;1.26;58.01
12785;BME280;6456;42.680;23.260;2023-02-10T11:36:51;96245.31;;;1.42;57.77
12785;BME280;6456;42.680;23.260;2023-02-10T11:39:22;96226.56;;;1.27;57.83
12785;BME280;6456;42.680;23.260;2023-02-10T11:41:50;96206.25;;;1.10;57.80
12785;BME280;6456;42.680;23.260;2023-02-10T11:44:27;96204.03;;;1.06;58.16
12785;BME280;6456;42.680;23.260;2023-02-10T11:46:55;96199.22;;;1.12;58.20
12785;BME280;6456;42.680;23.260;2023-02-10T11:49:23;96152.78;;;0.98;57.95
12785;BME280;6456;42.680;23.260;2023-02-10T11:51:54;96147.34;;;0.90;57.65
12785;BME280;6456;42.680;23.260;2023-02-10T11:54:23;96242.59;;;1.66;57.91
12785;BME280;6456;42.680;23.260;2023-02-10T11:57:00;96230.09;;;1.82;57.95
12785;BME280;6456;42.680;23.260;2023-02-10T11:59:54;96199.63;;;1.84;57.66
12785;BME280;6456;42.680;23.260;2023-02-10T12:02:38;96149.91;;;1.46;57.00
12785;BME280;6456;42.680;23.260;2023-02-10T12:05:18;96160.78;;;1.40;56.93
12785;BME280;6456;42.680;23.260;2023-02-10T12:08:04;96196.38;;;1.60;57.09
12785;BME280;6456;42.680;23.260;2023-02-10T12:10:39;96147.31;;;1.57;57.17
12785;BME280;6456;42.680;23.260;2023-02-10T12:13:19;96214.47;;;2.04;57.79
12785;BME280;6456;42.680;23.260;2023-02-10T12:15:57;96197.69;;;2.08;58.96
12785;BME280;6456;42.680;23.260;2023-02-10T12:18:47;96188.25;;;2.07;56.55
12785;BME280;6456;42.680;23.260;2023-02-10T12:21:33;96184.34;;;2.13;55.99
12785;BME280;6456;42.680;23.260;2023-02-10T12:24:13;96168.88;;;2.11;56.38
12785;BME280;6456;42.680;23.260;2023-02-10T12:26:48;96184.88;;;2.27;57.32
12785;BME280;6456;42.680;23.260;2023-02-10T12:29:29;96176.66;;;2.22;56.24
12785;BME280;6456;42.680;23.260;2023-02-10T12:32:12;96188.00;;;2.42;56.06
12785;BME280;6456;42.680;23.260;2023-02-10T12:35:03;96139.66;;;2.30;55.56
12785;BME280;6456;42.680;23.260;2023-02-10T12:37:40;96128.81;;;2.25;55.48
12785;BME280;6456;42.680;23.260;2023-02-10T12:40:32;96150.59;;;2.33;55.73
12785;BME280;6456;42.680;23.260;2023-02-10T12:43:13;96190.25;;;2.67;56.33
12785;BME280;6456;42.680;23.260;2023-02-10T12:45:51;96179.41;;;2.83;55.93
12785;BME280;6456;42.680;23.260;2023-02-10T12:48:29;96116.47;;;2.58;55.24
12785;BME280;6456;42.680;23.260;2023-02-10T12:51:18;96141.63;;;2.79;54.43
12785;BME280;6456;42.680;23.260;2023-02-10T12:53:54;96104.59;;;2.66;54.23
12785;BME280;6456;42.680;23.260;2023-02-10T12:56:27;96140.34;;;2.94;54.09
12785;BME280;6456;42.680;23.260;2023-02-10T12:59:02;96182.94;;;3.23;53.76
12785;BME280;6456;42.680;23.260;2023-02-10T13:01:34;96178.84;;;3.30;53.75
12785;BME280;6456;42.680;23.260;2023-02-10T13:04:11;96178.75;;;3.41;53.56
12785;BME280;6456;42.680;23.260;2023-02-10T13:06:46;96183.56;;;3.46;53.33
12785;BME280;6456;42.680;23.260;2023-02-10T13:09:20;96116.31;;;3.11;52.45
12785;BME280;6456;42.680;23.260;2023-02-10T13:12:06;96177.31;;;3.58;52.42
12785;BME280;6456;42.680;23.260;2023-02-10T13:14:40;96175.00;;;3.64;52.45
12785;BME280;6456;42.680;23.260;2023-02-10T13:17:08;96175.28;;;3.71;52.54
12785;BME280;6456;42.680;23.260;2023-02-10T13:19:45;96179.03;;;3.78;51.96
12785;BME280;6456;42.680;23.260;2023-02-10T13:22:21;96126.31;;;3.46;51.68